createdAt,value
2022-11-14T00:00:47.487Z,14.45
2022-11-14T00:03:32.798Z,13.52
2022-11-14T00:06:18.241Z,12.70
2022-11-14T00:09:03.558Z,11.95
2022-11-14T00:11:48.933Z,14.18
2022-11-14T00:14:34.356Z,13.82
2022-11-14T00:17:19.528Z,10.77
2022-11-14T00:20:06.748Z,12.07
2022-11-14T00:22:52.280Z,12.07
2022-11-14T00:25:38.006Z,13.13
2022-11-14T00:28:23.420Z,13.27
2022-11-14T00:31:10.679Z,12.07
2022-11-14T00:33:56.078Z,11.75
2022-11-14T00:36:41.369Z,14.43
2022-11-14T00:39:26.721Z,13.25
2022-11-14T00:42:12.062Z,13.55
2022-11-14T00:44:57.318Z,12.60
2022-11-14T00:47:42.557Z,12.77
2022-11-14T00:50:27.807Z,13.25
2022-11-14T00:53:13.144Z,15.30
2022-11-14T00:55:58.468Z,12.98
2022-11-14T00:58:43.611Z,13.90
2022-11-14T01:01:28.947Z,12.48
2022-11-14T01:04:14.361Z,12.10
2022-11-14T01:06:59.542Z,13.55
2022-11-14T01:09:45.073Z,15.25
2022-11-14T01:12:30.178Z,13.50
2022-11-14T01:15:15.912Z,13.40
2022-11-14T01:18:01.445Z,13.65
2022-11-14T01:20:48.150Z,15.30
2022-11-14T01:23:33.570Z,13.68
2022-11-14T01:26:19.021Z,12.43
2022-11-14T01:29:04.527Z,13.05
2022-11-14T01:31:49.928Z,12.80
2022-11-14T01:34:35.050Z,14.05
2022-11-14T01:37:20.555Z,15.43
2022-11-14T01:40:06.575Z,12.50
2022-11-14T01:43:16.964Z,13.45
2022-11-14T01:46:15.231Z,13.18
2022-11-14T01:49:14.269Z,13.95
2022-11-14T01:52:07.060Z,13.55
2022-11-14T01:54:56.872Z,12.73
2022-11-14T01:57:46.842Z,14.45
2022-11-14T02:00:32.546Z,13.55
2022-11-14T02:03:19.070Z,17.55
2022-11-14T02:06:06.421Z,13.13
2022-11-14T02:08:53.066Z,16.80
2022-11-14T02:11:41.889Z,14.07
2022-11-14T02:14:29.074Z,16.25
2022-11-14T02:17:32.181Z,14.05
2022-11-14T02:20:31.722Z,13.57
2022-11-14T02:23:29.588Z,13.48
2022-11-14T02:26:20.255Z,12.88
2022-11-14T02:29:07.414Z,12.70
2022-11-14T02:31:52.486Z,12.80
2022-11-14T02:34:38.888Z,13.27
2022-11-14T02:37:24.037Z,13.63
2022-11-14T02:40:10.166Z,13.60
2022-11-14T02:42:55.713Z,12.40
2022-11-14T02:45:41.202Z,13.23
2022-11-14T02:48:26.790Z,13.23
2022-11-14T02:51:12.002Z,15.48
2022-11-14T02:53:57.231Z,14.43
2022-11-14T02:56:42.726Z,13.43
2022-11-14T02:59:27.925Z,14.13
2022-11-14T03:02:14.148Z,14.57
2022-11-14T03:04:59.304Z,14.00
2022-11-14T03:07:44.593Z,13.40
2022-11-14T03:10:30.004Z,15.60
2022-11-14T03:13:15.301Z,14.07
2022-11-14T03:16:11.976Z,13.50
2022-11-14T03:18:57.712Z,12.57
2022-11-14T03:21:42.865Z,14.07
2022-11-14T03:24:28.045Z,13.65
2022-11-14T03:27:13.321Z,13.13
2022-11-14T03:29:58.447Z,12.68
2022-11-14T03:32:43.830Z,13.27
2022-11-14T03:35:29.117Z,12.50
2022-11-14T03:38:14.710Z,13.68
2022-11-14T03:41:00.441Z,12.23
2022-11-14T03:43:45.816Z,14.15
2022-11-14T03:46:31.031Z,12.50
2022-11-14T03:49:16.446Z,14.27
2022-11-14T03:52:01.854Z,13.00
2022-11-14T03:54:47.157Z,11.75
2022-11-14T03:57:32.579Z,13.57
2022-11-14T04:00:18.501Z,14.38
2022-11-14T04:03:03.903Z,13.20
2022-11-14T04:05:49.652Z,13.68
2022-11-14T04:08:35.431Z,12.23
2022-11-14T04:11:20.650Z,12.30
2022-11-14T04:14:06.004Z,12.35
2022-11-14T04:16:51.085Z,11.75
2022-11-14T04:19:36.920Z,15.45
2022-11-14T04:22:22.501Z,11.82
2022-11-14T04:25:08.769Z,12.52
2022-11-14T04:27:54.112Z,12.48
2022-11-14T04:30:39.228Z,11.27
2022-11-14T04:33:24.624Z,11.63
2022-11-14T04:36:10.341Z,11.73
2022-11-14T04:38:55.669Z,10.60
2022-11-14T04:41:40.965Z,12.38
2022-11-14T04:44:26.400Z,11.32
2022-11-14T04:47:11.888Z,11.50
2022-11-14T04:49:57.167Z,15.13
2022-11-14T04:52:42.643Z,12.75
2022-11-14T04:55:27.855Z,11.50
2022-11-14T04:58:13.533Z,11.50
2022-11-14T05:00:59.031Z,9.73
2022-11-14T05:03:44.146Z,9.98
2022-11-14T05:06:29.588Z,10.65
2022-11-14T05:09:15.058Z,10.27
2022-11-14T05:12:00.212Z,10.68
2022-11-14T05:14:45.703Z,9.80
2022-11-14T05:17:30.980Z,8.70
2022-11-14T05:20:16.704Z,9.77
2022-11-14T05:23:01.825Z,11.15
2022-11-14T05:25:47.591Z,10.48
2022-11-14T05:28:33.202Z,10.57
2022-11-14T05:31:18.414Z,11.18
2022-11-14T05:34:03.940Z,9.95
2022-11-14T05:36:49.099Z,11.55
2022-11-14T05:39:34.639Z,10.40
2022-11-14T05:42:19.826Z,9.93
2022-11-14T05:45:05.565Z,10.15
2022-11-14T05:47:54.151Z,8.45
2022-11-14T05:50:39.440Z,10.10
2022-11-14T05:53:25.358Z,8.35
2022-11-14T05:56:12.549Z,7.40
2022-11-14T05:58:57.639Z,9.50
2022-11-14T06:01:43.419Z,9.90
2022-11-14T06:04:28.890Z,8.57
2022-11-14T06:07:19.749Z,9.32
2022-11-14T06:10:06.329Z,9.68
2022-11-14T06:12:51.970Z,9.73
2022-11-14T06:15:37.154Z,10.07
2022-11-14T06:18:22.607Z,10.75
2022-11-14T06:21:10.963Z,9.65
2022-11-14T06:23:56.327Z,9.95
2022-11-14T06:26:41.972Z,9.75
2022-11-14T06:29:31.332Z,9.70
2022-11-14T06:32:19.477Z,11.38
2022-11-14T06:35:05.382Z,11.23
2022-11-14T06:37:50.436Z,13.02
2022-11-14T06:40:35.498Z,11.93
2022-11-14T06:43:21.721Z,11.63
2022-11-14T06:46:08.696Z,12.73
2022-11-14T06:48:53.797Z,12.95
2022-11-14T06:51:39.412Z,13.35
2022-11-14T06:54:24.601Z,12.85
2022-11-14T06:57:10.056Z,11.80
2022-11-14T06:59:55.630Z,11.43
2022-11-14T07:02:46.119Z,13.75
2022-11-14T07:05:31.345Z,13.75
2022-11-14T07:08:20.869Z,12.80
2022-11-14T07:11:22.878Z,12.02
2022-11-14T07:14:09.579Z,11.65
2022-11-14T07:16:55.117Z,11.10
2022-11-14T07:19:40.501Z,11.98
2022-11-14T07:22:26.067Z,11.32
2022-11-14T07:25:11.325Z,12.57
2022-11-14T07:27:57.991Z,10.57
2022-11-14T07:30:43.256Z,12.10
2022-11-14T07:33:29.657Z,10.30
2022-11-14T07:36:16.543Z,11.70
2022-11-14T07:39:03.446Z,14.60
2022-11-14T07:41:48.947Z,12.32
2022-11-14T07:44:34.494Z,11.68
2022-11-14T07:47:20.073Z,11.18
2022-11-14T07:50:05.720Z,11.15
2022-11-14T07:52:52.840Z,15.13
2022-11-14T07:55:38.873Z,15.13
2022-11-14T07:58:41.710Z,13.88
2022-11-14T08:04:33.785Z,11.73
2022-11-14T08:08:21.705Z,13.68
2022-11-14T08:11:31.821Z,10.48
2022-11-14T08:14:20.358Z,10.93
2022-11-14T08:17:06.258Z,9.45
2022-11-14T08:19:51.538Z,11.95
2022-11-14T08:22:37.009Z,10.18
2022-11-14T08:25:22.249Z,8.27
2022-11-14T08:28:08.041Z,7.38
2022-11-14T08:30:58.324Z,5.80
2022-11-14T08:33:45.011Z,5.60
2022-11-14T08:36:30.432Z,4.97
2022-11-14T08:39:15.731Z,4.88
2022-11-14T08:42:01.038Z,4.40
2022-11-14T08:45:01.195Z,2.90
2022-11-14T08:47:53.168Z,2.95
2022-11-14T08:50:38.917Z,3.20
2022-11-14T08:54:14.438Z,3.45
2022-11-14T08:56:59.942Z,1.77
2022-11-14T08:59:49.699Z,5.10
2022-11-14T09:02:47.102Z,2.78
2022-11-14T09:05:32.725Z,2.22
2022-11-14T09:12:10.399Z,3.25
2022-11-14T09:14:56.115Z,2.35
2022-11-14T09:18:03.120Z,3.15
2022-11-14T09:24:30.297Z,4.53
2022-11-14T09:27:15.748Z,4.40
2022-11-14T09:30:00.948Z,4.38
2022-11-14T09:33:25.415Z,5.05
2022-11-14T09:36:15.811Z,5.22
2022-11-14T09:39:01.021Z,2.55
2022-11-14T09:42:23.954Z,3.42
2022-11-14T09:45:39.139Z,2.60
2022-11-14T09:48:29.900Z,5.00
2022-11-14T09:51:25.071Z,2.55
2022-11-14T09:54:24.614Z,4.88
2022-11-14T09:57:18.732Z,3.97
2022-11-14T10:00:25.085Z,2.72
2022-11-14T10:03:42.744Z,2.10
2022-11-14T10:06:35.123Z,4.32
2022-11-14T10:10:01.967Z,2.40
2022-11-14T10:13:37.156Z,2.83
2022-11-14T10:16:22.556Z,1.50
2022-11-14T10:19:46.171Z,2.35
2022-11-14T10:23:26.432Z,1.92
2022-11-14T10:26:18.880Z,2.15
2022-11-14T10:29:25.622Z,4.20
2022-11-14T10:32:16.985Z,1.80
2022-11-14T10:35:05.280Z,1.70
2022-11-14T10:38:18.033Z,1.58
2022-11-14T10:41:06.495Z,2.40
2022-11-14T10:43:52.662Z,1.98
2022-11-14T10:46:41.712Z,1.50
2022-11-14T10:49:31.147Z,1.80
2022-11-14T10:52:21.427Z,3.35
2022-11-14T10:55:13.929Z,2.88
2022-11-14T10:57:59.296Z,2.65
2022-11-14T11:00:44.662Z,1.90
2022-11-14T11:03:42.807Z,1.77
2022-11-14T11:06:28.831Z,2.03
2022-11-14T11:09:38.303Z,2.42
2022-11-14T11:12:46.052Z,2.40
2022-11-14T11:15:38.462Z,1.48
2022-11-14T11:18:30.074Z,1.98
2022-11-14T11:21:18.843Z,2.33
2022-11-14T11:24:05.111Z,2.58
2022-11-14T11:27:29.232Z,1.92
2022-11-14T11:30:24.835Z,1.55
2022-11-14T11:33:36.943Z,2.58
2022-11-14T11:36:24.962Z,2.17
2022-11-14T11:39:44.866Z,1.80
2022-11-14T11:43:23.652Z,2.03
2022-11-14T11:45:46.168Z,2.80
2022-11-14T11:48:38.419Z,1.45
2022-11-14T11:51:26.965Z,1.80
2022-11-14T11:54:27.001Z,1.70
2022-11-14T11:57:21.883Z,2.88
2022-11-14T12:00:18.508Z,3.33
2022-11-14T12:03:10.013Z,3.90
2022-11-14T12:06:24.864Z,1.88
2022-11-14T12:09:22.472Z,1.85
2022-11-14T12:12:27.078Z,3.45
2022-11-14T12:15:24.642Z,2.35
2022-11-14T12:18:26.432Z,2.20
2022-11-14T12:21:32.122Z,1.95
2022-11-14T12:25:12.117Z,2.00
2022-11-14T12:28:21.310Z,2.20
2022-11-14T12:31:12.997Z,2.13
2022-11-14T12:34:23.867Z,3.67
2022-11-14T12:37:36.508Z,3.15
2022-11-14T12:41:49.439Z,2.15
2022-11-14T12:59:29.946Z,1.70
2022-11-14T13:03:03.110Z,4.32
2022-11-14T13:13:55.395Z,4.05
2022-11-14T13:21:13.295Z,3.03
2022-11-14T13:28:31.707Z,3.03
2022-11-14T13:31:54.025Z,2.45
2022-11-14T13:35:27.717Z,7.15
2022-11-14T13:42:40.745Z,4.17
2022-11-14T13:49:03.074Z,4.22
2022-11-14T13:56:39.660Z,2.90
2022-11-14T13:59:58.382Z,3.70
2022-11-14T14:16:22.916Z,3.22
2022-11-14T14:20:27.729Z,3.92
2022-11-14T14:34:44.385Z,3.75
2022-11-14T14:56:23.358Z,8.88
2022-11-14T14:59:44.471Z,6.00
2022-11-14T15:03:04.102Z,8.25
2022-11-14T15:06:34.106Z,5.13
2022-11-14T15:16:56.942Z,3.57
2022-11-14T15:23:45.315Z,7.20
2022-11-14T15:27:15.786Z,6.32
2022-11-14T15:33:50.777Z,4.35
2022-11-14T15:38:42.612Z,4.10
2022-11-14T15:41:43.565Z,3.78
2022-11-14T15:48:26.302Z,4.70
2022-11-14T15:51:52.668Z,3.67
2022-11-14T15:59:36.411Z,4.45
2022-11-14T16:03:20.508Z,5.65
2022-11-14T16:18:28.703Z,3.53
2022-11-14T16:33:28.894Z,4.63
2022-11-14T16:45:00.472Z,4.43
2022-11-14T16:58:58.819Z,7.07
2022-11-14T17:09:44.769Z,6.07
2022-11-14T17:16:41.014Z,6.32
2022-11-14T17:20:14.203Z,8.43
2022-11-14T17:26:20.338Z,6.90
2022-11-14T17:51:36.404Z,5.50
2022-11-14T18:02:16.100Z,4.97
2022-11-14T18:05:50.348Z,5.40
2022-11-14T18:13:16.450Z,5.85
2022-11-14T18:20:20.031Z,5.55
2022-11-14T18:26:52.108Z,5.05
2022-11-14T18:30:42.208Z,4.93
2022-11-14T18:40:57.544Z,6.47
2022-11-14T18:52:17.440Z,4.40
2022-11-14T18:55:23.434Z,4.82
2022-11-14T18:58:20.872Z,5.65
2022-11-14T19:03:35.274Z,4.05
2022-11-14T19:05:46.448Z,6.22
2022-11-14T19:08:59.343Z,3.83
2022-11-14T19:12:40.947Z,4.20
2022-11-14T20:05:12.515Z,5.78
2022-11-14T20:19:36.095Z,5.25
2022-11-14T20:23:01.048Z,2.67
2022-11-14T20:34:04.045Z,6.38
2022-11-14T20:48:16.457Z,3.28
2022-11-14T21:05:40.004Z,4.85
2022-11-14T21:11:34.332Z,5.60
2022-11-14T21:40:59.479Z,18.02
2022-11-14T21:43:48.090Z,15.95
2022-11-14T21:49:28.478Z,20.48
2022-11-14T21:53:17.903Z,19.02
2022-11-14T22:00:12.650Z,41.22
2022-11-14T22:03:19.054Z,43.60
2022-11-14T22:06:07.217Z,38.38
2022-11-14T22:08:57.460Z,18.80
2022-11-14T22:11:43.218Z,10.77
2022-11-14T22:14:29.519Z,5.68
2022-11-14T22:17:16.845Z,6.47
2022-11-14T22:20:05.846Z,6.78
2022-11-14T22:23:17.621Z,8.05
2022-11-14T22:26:52.917Z,5.40
2022-11-14T22:29:38.212Z,6.97
2022-11-14T22:32:23.627Z,7.93
2022-11-14T22:35:09.299Z,7.70
2022-11-14T22:38:12.886Z,6.22
2022-11-14T22:44:01.442Z,5.40
2022-11-14T22:46:46.855Z,8.40
2022-11-14T22:49:32.031Z,5.95
2022-11-14T22:52:17.344Z,6.32
2022-11-14T22:55:02.845Z,5.50
2022-11-14T22:57:48.180Z,3.95
2022-11-14T23:00:33.679Z,7.75
2022-11-14T23:03:21.380Z,4.15
2022-11-14T23:06:15.397Z,3.22
2022-11-14T23:09:02.197Z,6.60
2022-11-14T23:11:47.952Z,4.72
2022-11-14T23:14:33.664Z,5.20
2022-11-14T23:17:18.845Z,6.13
2022-11-14T23:20:04.790Z,4.18
2022-11-14T23:22:50.282Z,4.38
2022-11-14T23:25:38.866Z,4.93
2022-11-14T23:28:24.485Z,6.43
2022-11-14T23:31:11.768Z,5.32
2022-11-14T23:33:58.194Z,4.57
2022-11-14T23:36:43.412Z,5.60
2022-11-14T23:39:29.138Z,5.95
2022-11-14T23:42:14.604Z,6.82
2022-11-14T23:45:00.189Z,4.00
2022-11-14T23:47:45.801Z,4.72
2022-11-14T23:50:31.160Z,3.67
2022-11-14T23:53:18.699Z,4.10
2022-11-14T23:56:04.336Z,3.90
2022-11-14T23:58:49.745Z,3.72
